Time;durP1;ratioP1;P1;durP2;ratioP2;P2;SDS_P1;SDS_P2;PMS_P1;PMS_P2;Temp;Humidity;BMP_temperature;BMP_pressure;BME280_temperature;BME280_humidity;BME280_pressure;Samples;Min_cycle;Max_cycle;Signal;HPM_P1;HPM_P2
2022/09/02 00:00:46;;;;;;;9.95;5.50;;;;;;;11.07;71.32;99642.40;1681623;85;21034;-69
2022/09/02 00:03:12;;;;;;;9.93;5.08;;;;;;;11.01;71.15;99645.24;1681660;85;21321;-69
2022/09/02 00:05:39;;;;;;;12.20;5.83;;;;;;;10.95;71.58;99650.72;1662053;85;20982;-69
2022/09/02 00:08:06;;;;;;;12.70;5.28;;;;;;;10.89;71.65;99656.16;1681579;85;21470;-69
2022/09/02 00:10:38;;;;;;;8.35;5.20;;;;;;;10.82;71.80;99656.84;1681678;85;21532;-69
2022/09/02 00:13:04;;;;;;;11.88;5.58;;;;;;;10.76;71.88;99664.91;1681716;85;21034;-69
2022/09/02 00:15:32;;;;;;;12.60;5.25;;;;;;;10.72;71.75;99658.13;1681901;85;21614;-70
2022/09/02 00:18:01;;;;;;;8.18;5.12;;;;;;;10.69;71.46;99662.14;1681576;85;21053;-69
2022/09/02 00:20:29;;;;;;;11.83;4.97;;;;;;;10.68;71.38;99656.55;1681565;85;20990;-69
2022/09/02 00:22:56;;;;;;;9.38;5.65;;;;;;;10.67;71.52;99657.45;1681547;85;21089;-69
2022/09/02 00:25:22;;;;;;;12.50;4.92;;;;;;;10.65;71.57;99660.11;1681662;85;21026;-69
2022/09/02 00:27:49;;;;;;;12.03;5.62;;;;;;;10.65;71.62;99663.16;1681968;85;21138;-69
2022/09/02 00:30:16;;;;;;;7.42;4.97;;;;;;;10.65;71.71;99667.06;1681554;85;21463;-69
2022/09/02 00:32:44;;;;;;;17.05;5.37;;;;;;;10.64;71.62;99672.72;1681704;85;20966;-69
2022/09/02 00:35:11;;;;;;;9.83;5.25;;;;;;;10.63;71.61;99671.02;1681564;85;21026;-69
2022/09/02 00:37:38;;;;;;;11.18;5.28;;;;;;;10.61;71.27;99678.03;1681692;85;20986;-69
2022/09/02 00:40:07;;;;;;;10.38;5.25;;;;;;;10.59;71.54;99677.23;1681910;85;21130;-69
2022/09/02 00:42:34;;;;;;;14.28;5.53;;;;;;;10.56;71.66;99679.98;1681559;85;21099;-69
2022/09/02 00:45:03;;;;;;;9.03;5.35;;;;;;;10.52;71.87;99681.00;1681636;85;21022;-70
2022/09/02 00:47:30;;;;;;;9.23;5.17;;;;;;;10.48;71.89;99683.31;1681598;85;21041;-69
2022/09/02 00:49:57;;;;;;;11.48;4.75;;;;;;;10.44;72.01;99686.08;1681802;85;21097;-69
2022/09/02 00:52:31;;;;;;;7.40;4.70;;;;;;;10.39;72.22;99689.33;1681855;85;21096;-68
2022/09/02 00:55:06;;;;;;;8.60;4.90;;;;;;;10.34;72.20;99682.98;1681690;85;21043;-68
2022/09/02 00:57:37;;;;;;;6.70;4.90;;;;;;;10.30;72.40;99691.35;1682216;85;21033;-68
2022/09/02 01:00:11;;;;;;;10.43;5.83;;;;;;;10.28;72.78;99691.00;1697418;83;21016;-68
2022/09/02 01:02:40;;;;;;;10.48;5.20;;;;;;;10.25;73.35;99693.27;1716559;83;21049;-70
2022/09/02 01:05:10;;;;;;;7.25;5.17;;;;;;;10.23;73.89;99691.62;1681749;85;21553;-71
2022/09/02 01:07:38;;;;;;;7.08;4.92;;;;;;;10.21;74.12;99694.72;1681744;85;20983;-70
2022/09/02 01:10:10;;;;;;;9.40;5.20;;;;;;;10.19;73.99;99692.66;1681825;85;20982;-70
2022/09/02 01:12:37;;;;;;;8.38;4.97;;;;;;;10.16;73.86;99693.58;1681736;85;21034;-69
2022/09/02 01:15:05;;;;;;;9.98;4.55;;;;;;;10.10;73.68;99692.95;1681822;85;21109;-69
2022/09/02 01:17:34;;;;;;;7.65;5.30;;;;;;;10.05;73.78;99700.90;1681776;85;21082;-69
2022/09/02 01:20:07;;;;;;;7.53;4.87;;;;;;;9.99;73.73;99694.64;1681757;85;21077;-69
2022/09/02 01:22:34;;;;;;;7.40;4.95;;;;;;;9.96;73.71;99701.24;1681867;84;20982;-69
2022/09/02 01:25:09;;;;;;;8.25;5.03;;;;;;;9.92;73.95;99700.50;1681673;85;21038;-69
2022/09/02 01:27:36;;;;;;;7.20;4.80;;;;;;;9.91;74.00;99705.73;1682331;85;20982;-69
2022/09/02 01:30:05;;;;;;;8.20;4.80;;;;;;;9.89;74.06;99704.94;1681779;85;21152;-69
2022/09/02 01:32:31;;;;;;;9.80;5.30;;;;;;;9.87;74.13;99710.19;1681742;85;21069;-69
2022/09/02 01:34:58;;;;;;;6.95;4.62;;;;;;;9.84;74.23;99711.59;1681742;85;20974;-69
2022/09/02 01:37:25;;;;;;;8.68;5.17;;;;;;;9.83;74.31;99717.69;1681726;85;21038;-69
2022/09/02 01:39:54;;;;;;;8.88;5.87;;;;;;;9.79;74.42;99719.98;1681678;85;21060;-69
2022/09/02 01:42:22;;;;;;;11.40;5.58;;;;;;;9.76;74.53;99727.06;1681777;85;21115;-69
2022/09/02 01:44:48;;;;;;;7.87;4.67;;;;;;;9.72;74.59;99722.41;1681689;85;20974;-69
2022/09/02 01:47:22;;;;;;;8.95;5.15;;;;;;;9.68;74.81;99719.52;1682035;85;21018;-69
2022/09/02 01:49:49;;;;;;;9.50;5.15;;;;;;;9.64;75.05;99719.22;1681747;84;21486;-69
2022/09/02 01:52:16;;;;;;;11.48;5.78;;;;;;;9.60;75.58;99723.66;1681760;85;20974;-69
2022/09/02 01:54:45;;;;;;;12.45;5.20;;;;;;;9.57;76.01;99721.19;1681769;85;21439;-69
2022/09/02 01:57:12;;;;;;;12.58;5.47;;;;;;;9.55;76.29;99723.44;1681612;85;21038;-69
2022/09/02 01:59:40;;;;;;;7.35;4.97;;;;;;;9.53;76.47;99719.59;1681722;85;20994;-69
2022/09/02 02:02:06;;;;;;;7.40;5.33;;;;;;;9.51;76.64;99716.64;1681693;85;21017;-69
2022/09/02 02:04:33;;;;;;;8.75;5.12;;;;;;;9.48;76.72;99724.52;1681747;85;21033;-69
2022/09/02 02:06:59;;;;;;;7.47;4.85;;;;;;;9.44;76.85;99722.92;1681663;85;21491;-69
2022/09/02 02:09:26;;;;;;;9.25;4.60;;;;;;;9.41;76.87;99729.05;1681722;85;21501;-69
2022/09/02 02:11:53;;;;;;;11.57;5.33;;;;;;;9.39;77.09;99726.98;1681738;85;21497;-69
2022/09/02 02:14:22;;;;;;;7.72;4.58;;;;;;;9.37;77.20;99732.67;1681700;85;21026;-69
2022/09/02 02:16:49;;;;;;;7.42;4.55;;;;;;;9.36;77.43;99732.28;1681728;85;21439;-69
2022/09/02 02:19:15;;;;;;;6.50;5.00;;;;;;;9.37;77.40;99733.13;1681640;85;21124;-69
2022/09/02 02:21:42;;;;;;;8.65;5.42;;;;;;;9.36;77.38;99734.87;1681701;83;21042;-69
2022/09/02 02:24:08;;;;;;;12.33;4.95;;;;;;;9.36;77.32;99737.91;1682437;85;20991;-69
2022/09/02 02:26:35;;;;;;;9.78;4.87;;;;;;;9.33;77.66;99737.56;1682465;85;20982;-70
2022/09/02 02:29:02;;;;;;;9.35;4.55;;;;;;;9.28;77.98;99737.70;1682446;85;21529;-69
2022/09/02 02:31:30;;;;;;;9.00;4.92;;;;;;;9.25;78.18;99735.64;1682421;85;21889;-70
2022/09/02 02:33:58;;;;;;;9.05;4.92;;;;;;;9.21;78.58;99741.37;1682320;85;21461;-70
2022/09/02 02:36:25;;;;;;;8.03;4.40;;;;;;;9.17;79.06;99738.95;1682483;85;21478;-69
2022/09/02 02:38:51;;;;;;;7.05;4.72;;;;;;;9.13;79.66;99734.75;1682594;85;21034;-69
2022/09/02 02:41:18;;;;;;;9.58;4.60;;;;;;;9.10;80.14;99740.88;1682466;85;20969;-69
2022/09/02 02:43:46;;;;;;;7.28;4.78;;;;;;;9.06;80.33;99744.91;1682493;85;21132;-69
2022/09/02 02:46:14;;;;;;;9.78;4.55;;;;;;;9.03;80.68;99740.66;1682363;85;21069;-69
2022/09/02 02:48:41;;;;;;;10.32;5.22;;;;;;;8.99;80.59;99741.19;1682366;84;21065;-69
2022/09/02 02:51:08;;;;;;;11.35;4.75;;;;;;;8.97;80.62;99746.05;1682452;85;20982;-69
2022/09/02 02:53:35;;;;;;;9.38;5.80;;;;;;;8.95;80.77;99746.09;1682479;85;21030;-69
2022/09/02 02:56:03;;;;;;;9.95;5.37;;;;;;;8.94;80.76;99749.59;1682386;85;21096;-69
2022/09/02 02:58:31;;;;;;;8.83;4.83;;;;;;;8.96;80.71;99757.33;1682337;85;21042;-69
2022/09/02 03:01:00;;;;;;;8.05;4.60;;;;;;;8.95;80.77;99753.88;1682424;85;21561;-69
2022/09/02 03:03:26;;;;;;;7.12;4.90;;;;;;;8.93;81.06;99756.11;1682622;85;21026;-69
2022/09/02 03:05:54;;;;;;;6.53;5.00;;;;;;;8.87;81.65;99762.77;1682468;85;21045;-69
2022/09/02 03:08:24;;;;;;;8.15;5.05;;;;;;;8.81;82.52;99762.50;1682440;85;22226;-69
2022/09/02 03:10:55;;;;;;;9.10;4.92;;;;;;;8.78;83.24;99768.25;1682363;85;21532;-69
2022/09/02 03:13:24;;;;;;;8.90;5.05;;;;;;;8.74;83.69;99765.34;1682394;85;21026;-69
2022/09/02 03:15:51;;;;;;;9.75;5.03;;;;;;;8.70;84.19;99765.88;1682590;85;21114;-69
2022/09/02 03:18:18;;;;;;;7.55;4.60;;;;;;;8.68;84.56;99768.10;1682399;85;20994;-69
2022/09/02 03:20:45;;;;;;;10.88;5.33;;;;;;;8.66;84.86;99771.18;1682348;85;21126;-69
2022/09/02 03:23:12;;;;;;;7.47;4.65;;;;;;;8.61;85.15;99773.90;1681770;85;21074;-69
2022/09/02 03:25:42;;;;;;;7.47;4.72;;;;;;;8.58;85.41;99774.86;1681596;85;21117;-69
2022/09/02 03:28:11;;;;;;;9.28;5.33;;;;;;;8.57;85.66;99774.91;1715598;83;20998;-69
2022/09/02 03:30:39;;;;;;;10.75;5.92;;;;;;;8.56;86.08;99781.83;1681657;85;21030;-69
2022/09/02 03:33:06;;;;;;;13.93;5.42;;;;;;;8.66;86.71;99782.84;1681737;85;21250;-69
2022/09/02 03:35:40;;;;;;;11.93;5.70;;;;;;;8.84;86.97;99789.65;1681572;85;21070;-68
2022/09/02 03:38:08;;;;;;;9.23;5.15;;;;;;;9.09;86.96;99787.63;1681827;85;20974;-69
2022/09/02 03:40:35;;;;;;;8.93;5.30;;;;;;;9.38;86.42;99785.45;1681552;85;21041;-68
2022/09/02 03:43:02;;;;;;;11.73;5.17;;;;;;;9.58;85.28;99790.41;1681638;85;21061;-68
2022/09/02 03:45:29;;;;;;;16.52;5.87;;;;;;;9.68;84.42;99790.48;1681727;85;21273;-68
2022/09/02 03:47:58;;;;;;;22.93;6.60;;;;;;;9.87;84.07;99790.73;1681583;85;21491;-68
2022/09/02 03:50:30;;;;;;;21.82;6.25;;;;;;;10.19;83.25;99789.65;1716519;83;20997;-68
2022/09/02 03:52:57;;;;;;;18.42;6.12;;;;;;;10.53;82.25;99798.88;1715782;83;20973;-68
2022/09/02 03:55:25;;;;;;;22.22;6.20;;;;;;;10.87;81.32;99799.33;1681635;83;21085;-68
2022/09/02 03:57:54;;;;;;;17.00;5.80;;;;;;;11.10;80.05;99798.92;1681728;85;21198;-68
2022/09/02 04:00:23;;;;;;;15.98;6.62;;;;;;;11.24;78.98;99805.73;1681514;85;21514;-68
2022/09/02 04:02:53;;;;;;;18.20;6.22;;;;;;;11.44;78.53;99804.95;1681638;85;21037;-68
2022/09/02 04:05:21;;;;;;;12.85;6.12;;;;;;;11.67;77.78;99806.19;1681817;85;21683;-69
2022/09/02 04:07:55;;;;;;;8.98;5.20;;;;;;;11.79;77.02;99812.22;1696787;83;21001;-68
2022/09/02 04:10:20;;;;;;;10.20;5.45;;;;;;;11.77;76.93;99814.07;1713304;83;21259;-68
2022/09/02 04:12:50;;;;;;;12.33;5.65;;;;;;;11.71;77.31;99820.34;1681695;85;21018;-68
2022/09/02 04:15:18;;;;;;;10.50;5.78;;;;;;;11.65;77.45;99823.19;1681609;85;20994;-69
2022/09/02 04:17:45;;;;;;;12.47;6.33;;;;;;;11.57;77.58;99822.66;1681649;85;21030;-69
2022/09/02 04:20:13;;;;;;;12.82;6.42;;;;;;;11.54;77.80;99827.98;1681549;85;21062;-68
2022/09/02 04:22:40;;;;;;;29.00;7.15;;;;;;;11.51;78.10;99833.77;1681818;84;22072;-68
2022/09/02 04:25:08;;;;;;;14.23;6.58;;;;;;;11.47;78.26;99836.94;1682384;85;21022;-69
2022/09/02 04:27:35;;;;;;;10.45;5.95;;;;;;;11.43;78.55;99840.56;1682502;84;20974;-68
2022/09/02 04:30:04;;;;;;;14.70;7.30;;;;;;;11.48;78.95;99838.64;1682776;85;21014;-68
2022/09/02 04:32:32;;;;;;;16.55;8.13;;;;;;;11.56;79.05;99839.20;1682522;85;21199;-68
2022/09/02 04:34:59;;;;;;;18.10;6.67;;;;;;;11.60;79.14;99845.95;1682488;85;21130;-68
2022/09/02 04:37:27;;;;;;;8.25;5.90;;;;;;;11.64;79.02;99845.39;1682426;85;20986;-68
2022/09/02 04:39:53;;;;;;;10.93;5.75;;;;;;;11.66;78.76;99847.03;1682733;85;21486;-68
2022/09/02 04:42:20;;;;;;;14.73;6.85;;;;;;;11.68;78.48;99848.27;1682457;85;21066;-68
2022/09/02 04:44:47;;;;;;;8.10;5.50;;;;;;;11.66;78.17;99855.30;1682600;85;21030;-68
2022/09/02 04:47:15;;;;;;;15.83;6.30;;;;;;;11.63;77.62;99860.62;1682517;84;21153;-68
2022/09/02 04:49:42;;;;;;;9.80;5.85;;;;;;;11.56;77.38;99860.04;1682497;85;20997;-69
2022/09/02 04:52:09;;;;;;;14.43;5.58;;;;;;;11.54;77.54;99863.61;1682491;85;20982;-69
2022/09/02 04:54:37;;;;;;;13.25;6.85;;;;;;;11.52;77.60;99866.27;1681350;85;21096;-69
2022/09/02 04:57:05;;;;;;;19.25;7.62;;;;;;;11.51;77.79;99864.57;1681769;85;21082;-69
2022/09/02 04:59:35;;;;;;;20.05;8.08;;;;;;;11.53;78.27;99860.16;1681943;85;21138;-69
2022/09/02 05:02:04;;;;;;;18.07;7.33;;;;;;;11.58;78.95;99854.32;1681879;84;21033;-69
2022/09/02 05:04:32;;;;;;;13.10;7.08;;;;;;;11.68;79.51;99854.78;1681590;85;21026;-68
2022/09/02 05:07:00;;;;;;;14.98;6.92;;;;;;;11.78;79.91;99852.70;1681655;85;21076;-69
2022/09/02 05:09:29;;;;;;;17.35;7.08;;;;;;;11.88;80.19;99850.95;1692004;84;21538;-70
2022/09/02 05:11:58;;;;;;;9.73;6.12;;;;;;;11.96;80.20;99851.95;1665571;85;21179;-71
2022/09/02 05:14:27;;;;;;;13.85;6.83;;;;;;;12.03;80.21;99856.84;1674306;85;21059;-70
2022/09/02 05:16:56;;;;;;;10.65;6.35;;;;;;;12.17;79.97;99852.83;1675119;85;21701;-70
2022/09/02 05:19:24;;;;;;;12.40;6.30;;;;;;;12.30;79.47;99856.61;1704171;83;21059;-71
2022/09/02 05:21:57;;;;;;;13.95;6.92;;;;;;;12.40;77.21;99852.68;1742144;82;21585;-75
2022/09/02 05:24:28;;;;;;;9.00;5.80;;;;;;;12.46;76.69;99856.34;1708172;83;21548;-75
2022/09/02 05:26:57;;;;;;;12.43;5.83;;;;;;;12.52;75.91;99856.09;1712876;83;21024;-74
2022/09/02 05:29:25;;;;;;;8.88;5.55;;;;;;;12.59;75.51;99860.11;1712614;83;21027;-74
2022/09/02 05:31:53;;;;;;;10.93;5.55;;;;;;;12.60;73.19;99851.36;1713463;83;21004;-75
2022/09/02 05:34:21;;;;;;;10.08;5.50;;;;;;;12.57;72.50;99851.98;1703200;83;21088;-74
2022/09/02 05:36:50;;;;;;;21.05;6.87;;;;;;;12.55;71.96;99849.89;1700630;83;21161;-73
2022/09/02 05:39:17;;;;;;;10.45;5.40;;;;;;;12.54;72.30;99852.11;1713148;83;21060;-74
2022/09/02 05:41:44;;;;;;;10.72;5.90;;;;;;;12.57;72.49;99854.13;1717674;83;21096;-74
2022/09/02 05:44:12;;;;;;;11.48;5.95;;;;;;;12.58;72.92;99852.38;1684240;84;21180;-74
2022/09/02 05:46:40;;;;;;;15.25;6.30;;;;;;;12.57;73.31;99854.59;1699192;83;37327;-75
2022/09/02 05:49:16;;;;;;;11.25;6.17;;;;;;;12.61;74.27;99857.43;1694268;84;21246;-74
2022/09/02 05:51:51;;;;;;;15.60;5.92;;;;;;;12.68;74.84;99853.20;1693944;84;21059;-74
2022/09/02 05:54:31;;;;;;;11.90;5.72;;;;;;;12.80;74.76;99846.57;1694956;84;21131;-74
2022/09/02 05:57:03;;;;;;;14.25;6.47;;;;;;;12.94;74.29;99849.44;1666327;84;21095;-73
2022/09/02 05:59:31;;;;;;;8.38;5.00;;;;;;;13.09;74.10;99848.73;1697090;83;21091;-74
2022/09/02 06:01:58;;;;;;;6.53;4.78;;;;;;;13.26;73.09;99855.82;1711939;83;21743;-74
2022/09/02 06:04:28;;;;;;;9.83;5.33;;;;;;;13.39;72.71;99853.47;1712037;82;21460;-74
2022/09/02 06:06:55;;;;;;;12.78;5.25;;;;;;;13.50;72.49;99846.45;1712621;83;21665;-74
2022/09/02 06:09:26;;;;;;;9.23;4.97;;;;;;;13.61;71.99;99853.31;1712580;83;21559;-74
2022/09/02 06:11:55;;;;;;;7.30;3.92;;;;;;;13.73;71.37;99849.66;1684983;84;21209;-74
2022/09/02 06:14:24;;;;;;;5.22;3.75;;;;;;;13.88;70.53;99864.21;1702085;83;21220;-74
2022/09/02 06:16:53;;;;;;;8.75;4.45;;;;;;;14.00;68.95;99863.59;1722318;83;21096;-74
2022/09/02 06:19:24;;;;;;;5.67;3.42;;;;;;;14.11;68.05;99862.63;1721682;83;21029;-75
2022/09/02 06:21:53;;;;;;;11.78;3.83;;;;;;;14.23;66.48;99860.69;1722553;83;21053;-75
2022/09/02 06:24:20;;;;;;;5.28;3.50;;;;;;;14.33;66.36;99865.87;1697849;83;21073;-75
2022/09/02 06:26:50;;;;;;;6.40;3.85;;;;;;;14.46;65.78;99869.58;1736186;82;21098;-76
2022/09/02 06:29:19;;;;;;;11.85;4.35;;;;;;;14.58;65.05;99869.43;1741276;82;21050;-76
2022/09/02 06:31:47;;;;;;;5.28;3.55;;;;;;;14.70;64.90;99871.40;1740737;82;21861;-73
2022/09/02 06:34:16;;;;;;;6.40;3.95;;;;;;;14.83;64.93;99871.59;1740645;82;21038;-75
2022/09/02 06:36:45;;;;;;;4.95;3.00;;;;;;;14.97;64.33;99874.36;1740523;82;21068;-76
2022/09/02 06:39:15;;;;;;;6.37;2.80;;;;;;;15.11;62.63;99870.53;1740216;82;21189;-76
2022/09/02 06:41:43;;;;;;;23.85;4.22;;;;;;;15.24;61.51;99870.70;1739342;82;21097;-75
2022/09/02 06:44:13;;;;;;;4.35;2.90;;;;;;;15.46;59.75;99867.75;1739274;81;22258;-75
2022/09/02 06:46:46;;;;;;;4.35;1.98;;;;;;;15.58;58.66;99866.28;1739720;81;21565;-75
2022/09/02 06:49:15;;;;;;;5.00;2.10;;;;;;;15.58;58.66;99866.28;1739696;82;21959;-74
2022/09/02 06:51:46;;;;;;;3.92;2.22;;;;;;;15.69;57.82;99877.84;1743148;82;21104;-75
2022/09/02 06:54:17;;;;;;;2.33;1.72;;;;;;;15.81;56.53;99873.68;1717029;82;21986;-76
2022/09/02 06:56:45;;;;;;;10.98;7.67;;;;;;;15.93;55.82;99869.06;1744117;82;21527;-74
2022/09/02 06:59:12;;;;;;;3.83;2.33;;;;;;;16.17;54.50;99877.31;1739716;82;21343;-74
2022/09/02 07:01:42;;;;;;;3.45;2.20;;;;;;;16.17;54.50;99877.31;1715748;82;21593;-73
2022/09/02 07:06:56;;;;;;;5.47;1.70;;;;;;;16.51;53.47;99871.77;1746912;82;20967;-73
2022/09/02 07:09:29;;;;;;;5.25;1.65;;;;;;;16.51;53.47;99871.77;1749020;81;21050;-74
2022/09/02 07:11:58;;;;;;;3.85;1.72;;;;;;;16.62;53.32;99878.14;1749567;81;21022;-74
2022/09/02 07:14:27;;;;;;;10.58;1.60;;;;;;;16.70;52.56;99880.73;1747572;81;21142;-74
2022/09/02 07:16:56;;;;;;;5.00;1.80;;;;;;;16.78;52.06;99875.03;1706542;83;22545;-74
2022/09/02 07:19:24;;;;;;;1.62;1.37;;;;;;;16.85;51.93;99880.27;1737159;82;21040;-73
2022/09/02 07:21:53;;;;;;;3.35;1.40;;;;;;;16.92;51.08;99871.55;1707340;82;21026;-75
2022/09/02 07:24:21;;;;;;;4.78;1.70;;;;;;;17.01;50.38;99874.45;1739460;81;21096;-75
2022/09/02 07:26:48;;;;;;;3.83;1.50;;;;;;;17.10;49.85;99871.73;1739955;82;21074;-75
2022/09/02 07:29:16;;;;;;;3.62;1.25;;;;;;;17.18;49.77;99872.97;1744401;82;21181;-74
2022/09/02 07:31:45;;;;;;;4.97;1.87;;;;;;;17.26;49.30;99874.25;1744419;82;21078;-74
2022/09/02 07:34:14;;;;;;;2.98;1.40;;;;;;;17.34;49.10;99878.58;1744383;82;21546;-74
2022/09/02 07:36:44;;;;;;;2.20;1.70;;;;;;;17.44;48.58;99871.78;1744119;82;20995;-74
2022/09/02 07:39:13;;;;;;;5.20;1.92;;;;;;;17.54;47.89;99867.64;1744668;81;21191;-75
2022/09/02 07:41:41;;;;;;;4.83;2.55;;;;;;;17.63;47.25;99868.34;1744052;82;21331;-75
2022/09/02 07:44:08;;;;;;;5.05;2.65;;;;;;;17.70;46.51;99862.27;1743350;82;22190;-75
2022/09/02 07:46:35;;;;;;;5.78;2.25;;;;;;;17.79;45.68;99863.81;1742027;81;21004;-73
2022/09/02 07:49:06;;;;;;;3.92;2.70;;;;;;;17.84;45.98;99857.78;1722814;83;21030;-74
2022/09/02 07:51:33;;;;;;;2.60;1.95;;;;;;;17.94;45.72;99862.46;1702733;81;21091;-74
2022/09/02 07:54:02;;;;;;;1.92;1.40;;;;;;;18.03;44.83;99866.64;1721999;83;21143;-74
2022/09/02 07:56:29;;;;;;;3.67;1.20;;;;;;;18.08;44.38;99863.23;1721770;83;21063;-75
2022/09/02 07:58:56;;;;;;;2.27;1.40;;;;;;;18.11;43.91;99861.72;1721227;83;21079;-74
2022/09/02 08:01:23;;;;;;;3.55;1.82;;;;;;;18.15;44.40;99862.37;1721932;83;21100;-75
2022/09/02 08:03:51;;;;;;;5.00;1.80;;;;;;;18.20;43.74;99860.25;1721706;83;21056;-75
2022/09/02 08:06:19;;;;;;;6.42;2.45;;;;;;;18.24;43.64;99859.11;1721517;83;21506;-75
2022/09/02 08:08:46;;;;;;;2.65;1.65;;;;;;;18.30;43.69;99855.23;1721233;83;22009;-75
2022/09/02 08:11:14;;;;;;;3.33;1.47;;;;;;;18.39;42.82;99863.34;1721871;83;22342;-75
2022/09/02 08:13:41;;;;;;;1.42;1.10;;;;;;;18.44;42.66;99870.94;1742399;81;21016;-75
2022/09/02 08:16:08;;;;;;;1.52;1.20;;;;;;;18.47;41.83;99861.04;1751471;81;20991;-75
2022/09/02 08:18:35;;;;;;;1.57;1.15;;;;;;;18.52;41.76;99860.27;1751427;81;21513;-75
2022/09/02 08:21:02;;;;;;;1.98;1.17;;;;;;;18.61;42.02;99861.44;1743854;81;21017;-75
2022/09/02 08:23:28;;;;;;;1.65;1.02;;;;;;;18.71;41.18;99857.72;1721483;83;21569;-73
2022/09/02 08:25:59;;;;;;;1.47;1.20;;;;;;;18.80;40.76;99851.33;1731064;81;21043;-74
2022/09/02 08:28:30;;;;;;;1.65;1.00;;;;;;;18.90;40.97;99847.59;1708192;82;21100;-74
2022/09/02 08:31:01;;;;;;;3.30;1.20;;;;;;;19.04;40.48;99844.82;1734506;82;21455;-73
2022/09/02 08:33:28;;;;;;;1.98;1.17;;;;;;;19.17;39.78;99839.06;1711769;82;21029;-74
2022/09/02 08:35:55;;;;;;;2.75;1.20;;;;;;;19.25;39.96;99840.66;1737968;81;20973;-74
2022/09/02 08:38:24;;;;;;;1.55;1.20;;;;;;;19.32;39.59;99846.83;1710117;81;21021;-76
2022/09/02 08:40:51;;;;;;;3.00;1.30;;;;;;;19.31;39.66;99848.63;1721902;82;21371;-76
2022/09/02 08:43:30;;;;;;;5.08;1.70;;;;;;;19.33;39.63;99846.72;1737803;81;21248;-75
2022/09/02 08:46:03;;;;;;;2.55;1.40;;;;;;;19.45;39.41;99842.34;1731925;81;21197;-76
2022/09/02 08:48:41;;;;;;;3.30;1.55;;;;;;;19.64;39.04;99837.45;1709954;82;21038;-78
2022/09/02 08:51:12;;;;;;;4.00;1.12;;;;;;;19.83;39.11;99833.83;1734691;81;20973;-76
2022/09/02 08:54:11;;;;;;;3.58;1.27;;;;;;;20.09;38.32;99833.70;1725709;81;21056;-76
2022/09/02 08:56:40;;;;;;;2.50;1.15;;;;;;;20.27;38.42;99837.11;1723116;82;21739;-76
2022/09/02 08:59:08;;;;;;;1.75;1.17;;;;;;;20.41;37.90;99830.80;1717359;82;21015;-75
2022/09/02 09:01:50;;;;;;;4.25;1.40;;;;;;;20.38;37.96;99831.06;1693171;83;21086;-76
2022/09/02 09:04:38;;;;;;;1.65;1.15;;;;;;;20.28;37.64;99827.39;1715754;83;21066;-76
2022/09/02 09:07:17;;;;;;;1.82;1.37;;;;;;;20.15;38.23;99828.81;1716234;83;21050;-76
2022/09/02 09:10:21;;;;;;;1.82;1.20;;;;;;;20.03;38.68;99831.02;1701327;83;21160;-76
2022/09/02 09:13:20;;;;;;;7.72;4.40;;;;;;;19.93;38.87;99832.20;1716886;83;21054;-76
2022/09/02 09:16:18;;;;;;;1.75;1.37;;;;;;;19.90;38.26;99832.91;1716566;83;21007;-75
2022/09/02 09:18:50;;;;;;;5.75;1.22;;;;;;;19.98;37.78;99832.34;1716369;83;21085;-76
2022/09/02 09:21:18;;;;;;;1.37;1.03;;;;;;;20.12;37.55;99827.71;1715605;83;21022;-77
2022/09/02 09:23:45;;;;;;;1.95;1.42;;;;;;;20.26;37.00;99832.78;1720663;82;21558;-76
2022/09/02 09:26:21;;;;;;;2.35;1.07;;;;;;;20.33;36.96;99823.93;1694512;82;21010;-77
2022/09/02 09:28:49;;;;;;;1.37;1.25;;;;;;;20.36;36.99;99825.50;1674555;83;21111;-77
2022/09/02 09:31:21;;;;;;;2.95;1.55;;;;;;;20.39;36.47;99824.80;1742502;82;21037;-77
2022/09/02 09:34:05;;;;;;;2.35;1.42;;;;;;;20.36;36.89;99822.86;1704423;83;21059;-77
2022/09/02 09:36:44;;;;;;;8.60;2.30;;;;;;;20.41;36.75;99830.80;1638288;84;21265;-77
2022/09/02 09:39:30;;;;;;;1.25;1.15;;;;;;;20.43;36.95;99820.96;1742072;82;21133;-77
2022/09/02 09:42:02;;;;;;;4.62;1.20;;;;;;;20.47;37.03;99826.86;1704303;84;21023;-76
2022/09/02 09:44:43;;;;;;;1.77;1.07;;;;;;;20.52;36.15;99822.91;1741953;81;21021;-76
2022/09/02 09:47:24;;;;;;;8.28;1.77;;;;;;;20.56;35.86;99823.53;1677375;84;21067;-76
2022/09/02 09:50:14;;;;;;;2.30;1.10;;;;;;;20.62;36.02;99821.70;1742600;81;21810;-76
2022/09/02 09:52:41;;;;;;;1.20;1.00;;;;;;;20.70;34.92;99825.94;1704257;84;21087;-76
2022/09/02 09:55:23;;;;;;;2.80;1.02;;;;;;;20.73;34.65;99821.73;1742149;82;21493;-75
2022/09/02 09:57:50;;;;;;;2.20;1.00;;;;;;;20.77;34.35;99822.34;1678304;84;21582;-76
2022/09/02 10:00:31;;;;;;;0.93;0.90;;;;;;;20.81;34.37;99816.67;1717495;82;21068;-76
2022/09/02 10:03:07;;;;;;;1.60;1.10;;;;;;;20.88;33.80;99821.02;1704257;83;21138;-76
2022/09/02 10:05:39;;;;;;;2.42;0.93;;;;;;;20.96;33.70;99817.30;1742128;82;21700;-76
2022/09/02 10:08:20;;;;;;;4.83;1.27;;;;;;;21.07;33.84;99819.08;1742187;82;21025;-77
2022/09/02 10:11:01;;;;;;;1.30;0.95;;;;;;;21.22;33.68;99817.88;1704084;83;21168;-75
2022/09/02 10:13:31;;;;;;;5.10;1.30;;;;;;;21.40;33.70;99813.75;1741484;82;20986;-76
2022/09/02 10:16:10;;;;;;;1.37;0.90;;;;;;;21.65;32.83;99808.64;1704594;83;21131;-76
2022/09/02 10:18:51;;;;;;;2.30;0.85;;;;;;;21.83;32.33;99815.06;1703921;84;21602;-76
2022/09/02 10:21:58;;;;;;;9.03;1.82;;;;;;;21.95;32.07;99815.88;1687014;84;22258;-78
2022/09/02 10:25:03;;;;;;;4.08;1.40;;;;;;;22.00;31.94;99815.86;1694750;84;21073;-77
2022/09/02 10:28:13;;;;;;;5.92;1.07;;;;;;;22.10;31.85;99815.11;1742876;82;21589;-76
2022/09/02 10:31:00;;;;;;;3.27;1.30;;;;;;;22.12;31.97;99817.15;1743409;82;21233;-77
2022/09/02 10:33:44;;;;;;;1.35;0.93;;;;;;;22.15;32.14;99818.22;1742370;82;21009;-76
2022/09/02 10:36:19;;;;;;;2.17;1.10;;;;;;;22.29;32.06;99816.56;1640040;82;21456;-76
2022/09/02 10:38:46;;;;;;;1.77;1.17;;;;;;;22.38;32.15;99817.61;1734797;82;21023;-76
2022/09/02 10:41:30;;;;;;;2.27;0.98;;;;;;;22.37;31.76;99817.25;1738418;82;21110;-77
2022/09/02 10:44:24;;;;;;;1.65;1.00;;;;;;;22.34;31.62;99817.02;1736247;82;21635;-77
2022/09/02 10:47:11;;;;;;;3.15;1.10;;;;;;;22.27;31.43;99815.37;1738853;82;21031;-77
2022/09/02 10:49:52;;;;;;;2.42;1.05;;;;;;;22.19;31.68;99816.97;1718904;82;21575;-76
2022/09/02 10:52:55;;;;;;;2.85;1.85;;;;;;;22.15;32.21;99809.79;1711226;82;21030;-76
2022/09/02 10:55:32;;;;;;;1.17;1.00;;;;;;;22.17;32.24;99814.48;1728601;82;21049;-76
2022/09/02 10:58:03;;;;;;;1.15;0.95;;;;;;;22.22;32.16;99813.58;1731617;82;21232;-76
2022/09/02 11:00:31;;;;;;;3.52;1.10;;;;;;;22.22;31.78;99816.23;1732069;82;21018;-76
2022/09/02 11:03:29;;;;;;;7.28;1.47;;;;;;;22.15;32.12;99816.41;1730515;82;21819;-76
2022/09/02 11:06:03;;;;;;;1.12;0.90;;;;;;;21.99;32.15;99820.77;1705787;82;20998;-77
2022/09/02 11:08:42;;;;;;;2.25;1.27;;;;;;;21.75;32.06;99825.47;1728828;82;21065;-78
2022/09/02 11:11:27;;;;;;;1.98;0.80;;;;;;;21.49;32.36;99818.80;1695576;83;21126;-77
2022/09/02 11:14:19;;;;;;;2.35;1.00;;;;;;;21.28;32.71;99812.95;1696797;83;21425;-77
2022/09/02 11:16:51;;;;;;;3.58;1.17;;;;;;;21.12;33.06;99813.79;1728656;82;21098;-76
2022/09/02 11:19:41;;;;;;;1.93;1.00;;;;;;;21.10;33.23;99814.88;1710749;82;21703;-76
2022/09/02 11:22:22;;;;;;;1.20;0.95;;;;;;;21.13;32.70;99806.70;1720783;82;21690;-76
2022/09/02 11:25:03;;;;;;;2.17;0.90;;;;;;;21.20;32.34;99814.03;1742379;82;21145;-77
2022/09/02 11:27:50;;;;;;;1.30;1.10;;;;;;;21.26;32.31;99807.42;1715344;81;21030;-77
2022/09/02 11:30:20;;;;;;;1.52;1.17;;;;;;;21.35;31.97;99804.05;1698138;83;21020;-75
2022/09/02 11:33:01;;;;;;;1.32;1.00;;;;;;;21.43;31.86;99805.58;1671255;84;21042;-77
2022/09/02 11:35:37;;;;;;;1.90;0.93;;;;;;;21.50;31.69;99795.34;1687946;84;21049;-78
2022/09/02 11:38:08;;;;;;;1.62;1.07;;;;;;;21.55;31.42;99799.30;1672665;85;21820;-78
2022/09/02 11:41:00;;;;;;;4.83;1.10;;;;;;;21.58;31.23;99798.22;1671057;85;21046;-78
2022/09/02 11:43:52;;;;;;;2.83;1.10;;;;;;;21.58;31.24;99792.41;1673232;84;21042;-78
2022/09/02 11:46:53;;;;;;;4.78;0.90;;;;;;;21.64;31.35;99793.23;1692031;84;21163;-78
2022/09/02 11:49:46;;;;;;;1.20;0.85;;;;;;;21.78;31.44;99785.47;1721198;83;21093;-77
2022/09/02 11:52:42;;;;;;;3.70;0.98;;;;;;;21.99;31.50;99787.66;1672830;85;26302;-78
2022/09/02 11:55:18;;;;;;;3.37;1.00;;;;;;;22.16;30.82;99785.46;1688110;85;21089;-77